createdAt,value
2023-02-12T00:02:42.987Z,15.10
2023-02-12T00:06:15.747Z,18.00
2023-02-12T00:09:43.533Z,18.60
2023-02-12T00:13:11.037Z,18.40
2023-02-12T00:16:38.603Z,16.70
2023-02-12T00:20:07.426Z,16.30
2023-02-12T00:23:35.168Z,15.70
2023-02-12T00:27:02.412Z,16.10
2023-02-12T00:30:30.287Z,17.70
2023-02-12T00:33:58.222Z,17.80
2023-02-12T00:37:27.825Z,16.70
2023-02-12T00:40:55.441Z,17.80
2023-02-12T00:44:25.795Z,17.20
2023-02-12T00:47:53.117Z,17.20
2023-02-12T00:51:20.386Z,17.00
2023-02-12T00:54:47.828Z,15.80
2023-02-12T00:58:18.875Z,14.60
2023-02-12T01:01:46.300Z,14.80
2023-02-12T01:05:13.805Z,15.30
2023-02-12T01:08:44.710Z,14.50
2023-02-12T01:12:12.448Z,13.80
2023-02-12T01:15:39.712Z,14.70
2023-02-12T01:19:07.198Z,14.30
2023-02-12T01:22:34.964Z,14.40
2023-02-12T01:26:05.128Z,14.20
2023-02-12T01:29:32.235Z,13.10
2023-02-12T01:33:01.470Z,15.00
2023-02-12T01:36:29.877Z,17.80
2023-02-12T01:39:57.256Z,14.70
2023-02-12T01:43:24.417Z,14.90
2023-02-12T01:46:58.003Z,13.50
2023-02-12T01:50:25.440Z,14.50
2023-02-12T01:53:57.949Z,14.70
2023-02-12T01:57:26.046Z,16.70
2023-02-12T02:00:53.653Z,16.20
2023-02-12T02:04:24.879Z,13.30
2023-02-12T02:07:52.119Z,13.50
2023-02-12T02:11:37.135Z,12.40
2023-02-12T02:15:09.066Z,11.50
2023-02-12T02:18:42.440Z,11.70
2023-02-12T02:22:25.679Z,12.80
2023-02-12T02:26:12.142Z,10.70
2023-02-12T02:30:02.040Z,11.70
2023-02-12T02:33:41.480Z,12.00
2023-02-12T02:37:19.645Z,11.00
2023-02-12T02:40:54.615Z,10.60
2023-02-12T02:44:50.196Z,12.40
2023-02-12T02:48:24.482Z,11.10
2023-02-12T02:52:05.019Z,12.10
2023-02-12T02:55:39.038Z,11.30
2023-02-12T02:59:11.142Z,11.90
2023-02-12T03:02:42.804Z,12.00
2023-02-12T03:06:17.153Z,11.60
2023-02-12T03:09:48.299Z,10.60
2023-02-12T03:13:19.721Z,11.80
2023-02-12T03:16:55.517Z,11.00
2023-02-12T03:20:25.996Z,11.30
2023-02-12T03:23:59.366Z,12.90
2023-02-12T03:27:32.828Z,13.30
2023-02-12T03:31:12.133Z,12.60
2023-02-12T03:34:56.282Z,12.60
2023-02-12T03:38:32.170Z,12.40
2023-02-12T03:42:07.011Z,11.10
2023-02-12T03:45:43.920Z,9.50
2023-02-12T03:49:28.158Z,9.00
2023-02-12T03:52:55.611Z,7.90
2023-02-12T03:56:27.009Z,7.70
2023-02-12T03:59:54.634Z,8.00
2023-02-12T04:03:22.503Z,8.10
2023-02-12T04:06:51.665Z,8.30
2023-02-12T04:10:20.868Z,8.10
2023-02-12T04:14:00.890Z,9.00
2023-02-12T04:17:38.491Z,6.80
2023-02-12T04:21:13.791Z,7.90
2023-02-12T04:24:51.473Z,7.90
2023-02-12T04:28:29.616Z,8.70
2023-02-12T04:32:01.780Z,7.80
2023-02-12T04:35:33.895Z,7.90
2023-02-12T04:39:04.527Z,7.20
2023-02-12T04:42:42.043Z,7.90
2023-02-12T04:46:10.678Z,7.30
2023-02-12T04:49:40.252Z,8.50
2023-02-12T04:53:27.815Z,8.40
2023-02-12T04:56:55.176Z,9.60
2023-02-12T05:00:23.446Z,8.60
2023-02-12T05:03:54.404Z,10.00
2023-02-12T05:07:21.858Z,11.20
2023-02-12T05:10:49.112Z,12.20
2023-02-12T05:14:16.872Z,10.30
2023-02-12T05:17:45.870Z,11.70
2023-02-12T05:21:13.658Z,9.80
2023-02-12T05:24:41.428Z,10.00
2023-02-12T05:28:08.971Z,8.80
2023-02-12T05:31:37.200Z,10.40
2023-02-12T05:35:04.610Z,11.30
2023-02-12T05:38:31.822Z,10.40
2023-02-12T05:41:59.346Z,9.70
2023-02-12T05:45:28.157Z,10.40
2023-02-12T05:48:56.034Z,10.60
2023-02-12T05:52:26.309Z,9.40
2023-02-12T05:55:53.847Z,10.20
2023-02-12T05:59:24.041Z,9.80
2023-02-12T06:03:11.613Z,11.00
2023-02-12T06:06:42.285Z,12.10
2023-02-12T06:10:12.109Z,12.20
2023-02-12T06:13:39.511Z,10.40
2023-02-12T06:17:06.718Z,13.00
2023-02-12T06:20:34.184Z,14.10
2023-02-12T06:24:01.376Z,16.90
2023-02-12T06:27:28.822Z,15.10
2023-02-12T06:30:56.052Z,13.20
2023-02-12T06:37:51.319Z,11.30
2023-02-12T06:41:21.360Z,11.10
2023-02-12T06:44:51.306Z,12.40
2023-02-12T06:48:19.921Z,12.30
2023-02-12T06:51:47.119Z,13.40
2023-02-12T06:55:14.391Z,13.10
2023-02-12T06:58:43.373Z,13.40
2023-02-12T07:02:12.527Z,14.10
2023-02-12T07:05:42.043Z,14.60
2023-02-12T07:09:16.922Z,35.30
2023-02-12T07:12:44.348Z,33.30
2023-02-12T07:16:14.010Z,21.80
2023-02-12T07:19:41.276Z,17.00
2023-02-12T07:23:29.380Z,15.50
2023-02-12T07:26:56.682Z,16.60
2023-02-12T07:30:27.169Z,18.90
2023-02-12T07:33:57.072Z,23.00
2023-02-12T07:37:24.387Z,23.60
2023-02-12T07:40:51.848Z,25.60
2023-02-12T07:44:19.440Z,26.10
2023-02-12T07:47:46.883Z,25.90
2023-02-12T07:51:16.109Z,22.90
2023-02-12T07:54:43.387Z,22.80
2023-02-12T07:58:21.787Z,22.30
2023-02-12T08:01:51.394Z,20.00
2023-02-12T08:05:18.616Z,18.60
2023-02-12T08:08:46.112Z,30.30
2023-02-12T08:12:13.411Z,18.10
2023-02-12T08:15:40.685Z,29.20
2023-02-12T08:19:17.900Z,25.90
2023-02-12T08:22:46.287Z,41.10
2023-02-12T08:26:16.209Z,58.90
2023-02-12T08:29:43.499Z,54.60
2023-02-12T08:33:10.867Z,49.20
2023-02-12T08:36:41.375Z,47.90
2023-02-12T08:40:10.776Z,29.90
2023-02-12T08:43:38.675Z,22.80
2023-02-12T08:47:16.053Z,24.30
2023-02-12T08:50:43.210Z,39.80
2023-02-12T08:54:14.384Z,18.10
2023-02-12T08:57:43.275Z,16.00
2023-02-12T09:01:16.227Z,18.40
2023-02-12T09:04:46.256Z,21.00
2023-02-12T09:08:16.705Z,19.90
2023-02-12T09:11:45.164Z,20.10
2023-02-12T09:15:13.117Z,20.50
2023-02-12T09:18:41.317Z,21.80
2023-02-12T09:22:08.595Z,21.00
2023-02-12T09:25:36.838Z,37.20
2023-02-12T09:29:05.139Z,25.40
2023-02-12T09:32:32.513Z,23.90
2023-02-12T09:36:04.552Z,24.10
2023-02-12T09:39:32.453Z,21.30
2023-02-12T09:43:13.408Z,20.00
2023-02-12T09:46:48.958Z,22.70
2023-02-12T09:50:34.772Z,28.20
2023-02-12T09:54:07.473Z,25.40
2023-02-12T09:57:37.347Z,27.70
2023-02-12T10:01:12.156Z,27.70
2023-02-12T10:04:58.711Z,28.50
2023-02-12T10:08:41.175Z,29.10
2023-02-12T10:12:20.180Z,31.90
2023-02-12T10:15:55.685Z,28.90
2023-02-12T10:19:36.964Z,30.10
2023-02-12T10:23:17.676Z,29.80
2023-02-12T10:26:49.181Z,23.80
2023-02-12T10:30:24.119Z,24.40
2023-02-12T10:33:54.278Z,26.40
2023-02-12T10:37:33.621Z,24.60
2023-02-12T10:41:02.062Z,24.20
2023-02-12T10:44:29.857Z,25.30
2023-02-12T10:48:09.011Z,20.60
2023-02-12T10:51:54.962Z,19.80
2023-02-12T10:55:32.317Z,18.60
2023-02-12T10:59:01.577Z,18.20
2023-02-12T11:02:33.410Z,17.50
2023-02-12T11:06:17.146Z,18.70
2023-02-12T11:09:49.537Z,17.30
2023-02-12T11:13:26.627Z,16.10
2023-02-12T11:16:58.541Z,15.60
2023-02-12T11:20:30.195Z,17.80
2023-02-12T11:23:58.098Z,14.10
2023-02-12T11:27:28.752Z,11.80
2023-02-12T11:30:58.711Z,11.30
2023-02-12T11:34:26.692Z,10.40
2023-02-12T11:37:55.552Z,9.70
2023-02-12T11:41:37.333Z,8.10
2023-02-12T11:45:08.567Z,6.50
2023-02-12T11:48:41.631Z,7.60
2023-02-12T11:52:18.860Z,8.70
2023-02-12T11:55:57.507Z,9.40
2023-02-12T11:59:34.205Z,9.10
2023-02-12T12:06:42.633Z,9.00
2023-02-12T12:10:20.660Z,9.40
2023-02-12T12:13:52.326Z,9.40
2023-02-12T12:17:37.642Z,9.60
2023-02-12T12:21:12.930Z,9.00
2023-02-12T12:24:49.541Z,8.40
2023-02-12T12:28:31.802Z,9.00
2023-02-12T12:32:02.310Z,8.50
2023-02-12T12:35:41.794Z,8.70
2023-02-12T12:39:23.302Z,8.80
2023-02-12T12:43:15.297Z,9.30
2023-02-12T12:46:56.872Z,9.80
2023-02-12T12:50:44.380Z,10.40
2023-02-12T12:54:41.755Z,12.70
2023-02-12T12:58:20.746Z,12.00
2023-02-12T13:02:09.278Z,11.40
2023-02-12T13:06:17.587Z,12.70
2023-02-12T13:09:59.713Z,12.30
2023-02-12T13:13:34.470Z,11.90
2023-02-12T13:17:19.805Z,11.90
2023-02-12T13:20:53.754Z,10.70
2023-02-12T13:24:31.925Z,10.60
2023-02-12T13:28:01.142Z,11.50
2023-02-12T13:31:47.173Z,12.00
2023-02-12T13:35:21.024Z,12.70
2023-02-12T13:38:57.473Z,12.50
2023-02-12T13:42:38.491Z,12.60
2023-02-12T13:46:16.351Z,14.80
2023-02-12T13:50:01.343Z,15.50
2023-02-12T13:53:40.906Z,15.10
2023-02-12T13:57:14.926Z,15.50
2023-02-12T14:01:07.792Z,14.50
2023-02-12T14:04:38.061Z,17.20
2023-02-12T14:08:35.960Z,17.50
2023-02-12T14:12:16.534Z,17.20
2023-02-12T14:16:22.786Z,20.60
2023-02-12T14:20:08.875Z,17.90
2023-02-12T14:23:36.402Z,17.20
2023-02-12T14:27:04.224Z,15.80
2023-02-12T14:30:39.191Z,14.30
2023-02-12T14:34:50.467Z,14.40
2023-02-12T14:39:02.929Z,11.50
2023-02-12T14:42:58.033Z,24.20
2023-02-12T14:46:48.971Z,12.50
2023-02-12T14:50:24.160Z,10.20
2023-02-12T14:53:55.667Z,9.40
2023-02-12T14:57:28.804Z,7.60
2023-02-12T15:01:02.407Z,5.80
2023-02-12T15:04:34.942Z,6.00
2023-02-12T15:08:08.241Z,6.00
2023-02-12T15:11:48.215Z,6.50
2023-02-12T15:15:27.045Z,7.00
2023-02-12T15:19:01.009Z,6.40
2023-02-12T15:22:32.136Z,6.70
2023-02-12T15:26:00.371Z,7.10
2023-02-12T15:29:33.036Z,6.60
2023-02-12T15:33:04.502Z,7.20
2023-02-12T15:36:38.108Z,6.80
2023-02-12T15:40:08.797Z,6.90
2023-02-12T15:43:43.383Z,9.40
2023-02-12T15:47:17.188Z,9.70
2023-02-12T15:50:58.274Z,10.60
2023-02-12T15:54:26.312Z,11.50
2023-02-12T15:57:55.053Z,13.20
2023-02-12T16:01:28.023Z,13.80
2023-02-12T16:05:18.366Z,14.30
2023-02-12T16:08:47.966Z,11.40
2023-02-12T16:12:19.211Z,9.70
2023-02-12T16:15:46.822Z,10.20
2023-02-12T16:19:22.781Z,8.70
2023-02-12T16:22:53.548Z,7.90
2023-02-12T16:26:30.517Z,7.80
2023-02-12T16:30:00.539Z,7.30
2023-02-12T16:33:45.515Z,7.40
2023-02-12T16:41:28.032Z,11.40
2023-02-12T16:44:59.075Z,11.60
2023-02-12T16:48:43.854Z,10.10
2023-02-12T16:52:35.046Z,10.70
2023-02-12T16:56:03.897Z,11.60
2023-02-12T16:59:31.507Z,11.20
2023-02-12T17:02:59.470Z,11.80
2023-02-12T17:06:29.161Z,11.10
2023-02-12T17:09:59.071Z,11.60
2023-02-12T17:13:26.254Z,11.30
2023-02-12T17:16:53.542Z,10.00
2023-02-12T17:20:24.254Z,13.70
2023-02-12T17:23:53.900Z,13.60
2023-02-12T17:27:32.324Z,12.50
2023-02-12T17:31:02.680Z,15.00
2023-02-12T17:34:34.126Z,14.20
2023-02-12T17:38:17.344Z,14.60
2023-02-12T17:41:45.316Z,15.00
2023-02-12T17:45:14.975Z,14.40
2023-02-12T17:48:45.064Z,15.90
2023-02-12T17:52:15.282Z,14.00
2023-02-12T17:55:52.549Z,13.60
2023-02-12T17:59:20.360Z,14.20
2023-02-12T18:02:50.895Z,13.60
2023-02-12T18:06:24.520Z,12.40
2023-02-12T18:09:51.751Z,14.30
2023-02-12T18:13:22.084Z,13.40
2023-02-12T18:16:52.249Z,14.40
2023-02-12T18:20:29.629Z,15.30
2023-02-12T18:23:59.814Z,13.90
2023-02-12T18:27:27.160Z,12.50
2023-02-12T18:31:05.930Z,13.00
2023-02-12T18:34:33.343Z,13.10
2023-02-12T18:38:00.983Z,13.70
2023-02-12T18:41:30.307Z,12.50
2023-02-12T18:44:57.833Z,13.40
2023-02-12T18:48:27.253Z,12.80
2023-02-12T18:51:54.726Z,13.30
2023-02-12T18:55:21.883Z,13.80
2023-02-12T18:58:49.196Z,15.50
2023-02-12T19:02:16.923Z,15.00
2023-02-12T19:05:44.432Z,15.80
2023-02-12T19:09:13.472Z,17.30
2023-02-12T19:12:40.678Z,15.20
2023-02-12T19:16:13.738Z,14.30
2023-02-12T19:19:41.019Z,14.10
2023-02-12T19:23:08.252Z,14.10
2023-02-12T19:26:46.496Z,14.50
2023-02-12T19:30:14.997Z,15.00
2023-02-12T19:33:42.249Z,15.10
2023-02-12T19:37:11.688Z,14.60
2023-02-12T19:44:18.857Z,16.20
2023-02-12T19:47:46.372Z,15.50
2023-02-12T19:51:18.351Z,17.00
2023-02-12T19:54:48.385Z,17.30
2023-02-12T19:58:15.713Z,17.30
2023-02-12T20:01:46.283Z,18.30
2023-02-12T20:05:13.689Z,18.10
2023-02-12T20:08:41.947Z,20.30
2023-02-12T20:12:09.795Z,19.50
2023-02-12T20:15:38.008Z,19.60
2023-02-12T20:19:07.920Z,19.90
2023-02-12T20:22:36.917Z,19.60
2023-02-12T20:26:09.883Z,19.80
2023-02-12T20:33:02.737Z,19.10
2023-02-12T20:36:34.030Z,21.10
2023-02-12T20:40:01.279Z,21.70
2023-02-12T20:43:28.652Z,21.00
2023-02-12T20:46:57.361Z,22.30
2023-02-12T20:50:34.004Z,21.10
2023-02-12T20:54:03.486Z,22.00
2023-02-12T20:57:34.887Z,21.30
2023-02-12T21:01:08.202Z,20.40
2023-02-12T21:04:35.818Z,21.70
2023-02-12T21:08:03.161Z,22.30
2023-02-12T21:11:30.990Z,21.60
2023-02-12T21:14:58.299Z,21.70
2023-02-12T21:18:27.096Z,21.30
2023-02-12T21:21:54.564Z,23.00
2023-02-12T21:25:21.975Z,24.80
2023-02-12T21:28:49.539Z,23.10
2023-02-12T21:32:16.856Z,21.10
2023-02-12T21:35:44.428Z,20.70
2023-02-12T21:39:14.791Z,23.10
2023-02-12T21:42:41.970Z,19.80
2023-02-12T21:46:15.429Z,20.50
2023-02-12T21:49:43.256Z,20.50
2023-02-12T21:53:10.594Z,21.90
2023-02-12T21:56:42.506Z,22.90
2023-02-12T22:00:12.379Z,22.30
2023-02-12T22:03:44.081Z,23.00
2023-02-12T22:07:11.474Z,22.30
2023-02-12T22:10:38.863Z,21.20
2023-02-12T22:14:07.388Z,18.80
2023-02-12T22:17:35.781Z,21.20
2023-02-12T22:21:05.960Z,19.70
2023-02-12T22:24:37.353Z,19.20
2023-02-12T22:28:24.942Z,18.60
2023-02-12T22:31:52.349Z,18.80
2023-02-12T22:35:20.256Z,17.90
2023-02-12T22:38:47.660Z,17.60
2023-02-12T22:42:17.540Z,16.90
2023-02-12T22:49:13.606Z,15.80
2023-02-12T22:52:43.746Z,14.90
2023-02-12T22:56:11.889Z,13.80
2023-02-12T22:59:39.346Z,14.20
2023-02-12T23:03:07.157Z,14.90
2023-02-12T23:06:44.012Z,13.80
2023-02-12T23:10:12.777Z,13.80
2023-02-12T23:13:42.947Z,13.20
2023-02-12T23:17:10.360Z,13.70
2023-02-12T23:20:37.643Z,13.40
2023-02-12T23:24:04.993Z,14.10
2023-02-12T23:27:32.339Z,14.10
2023-02-12T23:31:00.504Z,14.50
2023-02-12T23:34:28.173Z,13.60
2023-02-12T23:37:55.805Z,12.90
2023-02-12T23:41:23.055Z,13.70
2023-02-12T23:44:50.394Z,13.10
2023-02-12T23:48:17.726Z,14.10
2023-02-12T23:51:46.378Z,13.50
2023-02-12T23:55:25.373Z,13.90
2023-02-12T23:59:12.875Z,14.60
